sensor_id;sensor_type;location;lat;lon;timestamp;temperature;humidity
43015;DHT22;28637;50.554;7.032;2024-01-11T00:00:38;-4.90;99.90
43015;DHT22;28637;50.554;7.032;2024-01-11T00:05:38;-5.00;99.90
43015;DHT22;28637;50.554;7.032;2024-01-11T00:10:39;-5.00;99.90
43015;DHT22;28637;50.554;7.032;2024-01-11T00:15:40;-5.10;99.90
43015;DHT22;28637;50.554;7.032;2024-01-11T00:20:41;-5.20;99.90
43015;DHT22;28637;50.554;7.032;2024-01-11T00:25:41;-5.30;99.90
43015;DHT22;28637;50.554;7.032;2024-01-11T00:30:42;-5.30;99.90
43015;DHT22;28637;50.554;7.032;2024-01-11T00:35:43;-5.30;99.90
43015;DHT22;28637;50.554;7.032;2024-01-11T00:40:43;-5.30;99.90
43015;DHT22;28637;50.554;7.032;2024-01-11T00:45:45;-5.40;99.90
43015;DHT22;28637;50.554;7.032;2024-01-11T00:50:46;-5.40;99.90
43015;DHT22;28637;50.554;7.032;2024-01-11T00:55:47;-5.50;99.90
43015;DHT22;28637;50.554;7.032;2024-01-11T01:00:47;-5.50;99.90
43015;DHT22;28637;50.554;7.032;2024-01-11T01:05:49;-5.40;99.90
43015;DHT22;28637;50.554;7.032;2024-01-11T01:10:50;-5.40;99.90
43015;DHT22;28637;50.554;7.032;2024-01-11T01:15:50;-5.30;99.90
43015;DHT22;28637;50.554;7.032;2024-01-11T01:20:51;-5.30;99.90
43015;DHT22;28637;50.554;7.032;2024-01-11T01:25:52;-5.40;99.90
43015;DHT22;28637;50.554;7.032;2024-01-11T01:30:52;-5.40;99.90
43015;DHT22;28637;50.554;7.032;2024-01-11T01:35:53;-5.40;99.90
43015;DHT22;28637;50.554;7.032;2024-01-11T01:40:53;-5.40;99.90
43015;DHT22;28637;50.554;7.032;2024-01-11T01:45:54;-5.40;99.90
43015;DHT22;28637;50.554;7.032;2024-01-11T01:50:55;-5.40;99.90
43015;DHT22;28637;50.554;7.032;2024-01-11T01:55:56;-5.40;99.90
43015;DHT22;28637;50.554;7.032;2024-01-11T02:00:57;-5.50;99.90
43015;DHT22;28637;50.554;7.032;2024-01-11T02:05:58;-5.60;99.90
43015;DHT22;28637;50.554;7.032;2024-01-11T02:11:00;-5.60;99.90
43015;DHT22;28637;50.554;7.032;2024-01-11T02:16:01;-5.60;99.90
43015;DHT22;28637;50.554;7.032;2024-01-11T02:21:02;-5.60;99.90
43015;DHT22;28637;50.554;7.032;2024-01-11T02:26:07;-5.70;99.90
43015;DHT22;28637;50.554;7.032;2024-01-11T02:31:07;-5.70;99.90
43015;DHT22;28637;50.554;7.032;2024-01-11T02:36:08;-5.70;99.90
43015;DHT22;28637;50.554;7.032;2024-01-11T02:41:09;-5.70;99.90
43015;DHT22;28637;50.554;7.032;2024-01-11T02:46:10;-5.70;99.90
43015;DHT22;28637;50.554;7.032;2024-01-11T02:51:11;-5.60;99.90
43015;DHT22;28637;50.554;7.032;2024-01-11T02:56:12;-5.70;99.90
43015;DHT22;28637;50.554;7.032;2024-01-11T03:01:12;-5.70;99.90
43015;DHT22;28637;50.554;7.032;2024-01-11T03:06:13;-5.70;99.90
43015;DHT22;28637;50.554;7.032;2024-01-11T03:11:14;-5.70;99.90
43015;DHT22;28637;50.554;7.032;2024-01-11T03:16:16;-5.80;99.90
43015;DHT22;28637;50.554;7.032;2024-01-11T03:21:17;-5.80;99.90
43015;DHT22;28637;50.554;7.032;2024-01-11T03:26:19;-5.80;99.90
43015;DHT22;28637;50.554;7.032;2024-01-11T03:31:19;-5.90;99.90
43015;DHT22;28637;50.554;7.032;2024-01-11T03:36:23;-5.90;99.90
43015;DHT22;28637;50.554;7.032;2024-01-11T03:41:24;-5.80;99.90
43015;DHT22;28637;50.554;7.032;2024-01-11T03:46:25;-5.80;99.90
43015;DHT22;28637;50.554;7.032;2024-01-11T03:51:25;-5.90;99.90
43015;DHT22;28637;50.554;7.032;2024-01-11T03:56:26;-5.90;99.90
43015;DHT22;28637;50.554;7.032;2024-01-11T04:01:26;-5.80;99.90
43015;DHT22;28637;50.554;7.032;2024-01-11T04:06:27;-5.80;99.90
43015;DHT22;28637;50.554;7.032;2024-01-11T04:11:28;-5.80;99.90
43015;DHT22;28637;50.554;7.032;2024-01-11T04:16:29;-5.80;99.90
43015;DHT22;28637;50.554;7.032;2024-01-11T04:21:30;-5.80;99.90
43015;DHT22;28637;50.554;7.032;2024-01-11T04:26:30;-5.80;99.90
43015;DHT22;28637;50.554;7.032;2024-01-11T04:31:31;-5.80;99.90
43015;DHT22;28637;50.554;7.032;2024-01-11T04:36:32;-5.90;99.90
43015;DHT22;28637;50.554;7.032;2024-01-11T04:41:35;-5.90;99.90
43015;DHT22;28637;50.554;7.032;2024-01-11T04:46:36;-5.80;99.90
43015;DHT22;28637;50.554;7.032;2024-01-11T04:51:37;-5.80;99.90
43015;DHT22;28637;50.554;7.032;2024-01-11T04:56:38;-5.80;99.90
43015;DHT22;28637;50.554;7.032;2024-01-11T05:01:38;-5.90;99.90
43015;DHT22;28637;50.554;7.032;2024-01-11T05:06:40;-5.90;99.90
43015;DHT22;28637;50.554;7.032;2024-01-11T05:11:40;-5.80;99.90
43015;DHT22;28637;50.554;7.032;2024-01-11T05:16:41;-5.80;99.90
43015;DHT22;28637;50.554;7.032;2024-01-11T05:21:42;-5.80;99.90
43015;DHT22;28637;50.554;7.032;2024-01-11T05:26:43;-5.70;99.90
43015;DHT22;28637;50.554;7.032;2024-01-11T05:31:44;-5.70;99.90
43015;DHT22;28637;50.554;7.032;2024-01-11T05:36:44;-5.80;99.90
43015;DHT22;28637;50.554;7.032;2024-01-11T05:41:45;-5.80;99.90
43015;DHT22;28637;50.554;7.032;2024-01-11T05:46:46;-5.80;99.90
43015;DHT22;28637;50.554;7.032;2024-01-11T05:51:46;-5.90;99.90
43015;DHT22;28637;50.554;7.032;2024-01-11T05:56:47;-5.90;99.90
43015;DHT22;28637;50.554;7.032;2024-01-11T06:01:48;-6.00;99.90
43015;DHT22;28637;50.554;7.032;2024-01-11T06:06:48;-6.00;99.90
43015;DHT22;28637;50.554;7.032;2024-01-11T06:11:49;-6.10;99.90
43015;DHT22;28637;50.554;7.032;2024-01-11T06:16:50;-6.10;99.90
43015;DHT22;28637;50.554;7.032;2024-01-11T06:21:51;-6.10;99.90
43015;DHT22;28637;50.554;7.032;2024-01-11T06:26:51;-6.20;99.90
43015;DHT22;28637;50.554;7.032;2024-01-11T06:31:52;-6.20;99.90
43015;DHT22;28637;50.554;7.032;2024-01-11T06:36:54;-6.10;99.90
43015;DHT22;28637;50.554;7.032;2024-01-11T06:41:55;-6.00;99.90
43015;DHT22;28637;50.554;7.032;2024-01-11T06:46:55;-6.00;99.90
43015;DHT22;28637;50.554;7.032;2024-01-11T06:51:56;-6.10;99.90
43015;DHT22;28637;50.554;7.032;2024-01-11T06:56:56;-6.20;99.90
43015;DHT22;28637;50.554;7.032;2024-01-11T07:01:57;-6.30;99.90
43015;DHT22;28637;50.554;7.032;2024-01-11T07:06:58;-6.30;99.90
43015;DHT22;28637;50.554;7.032;2024-01-11T07:11:59;-6.30;99.90
43015;DHT22;28637;50.554;7.032;2024-01-11T07:16:59;-6.00;99.90
43015;DHT22;28637;50.554;7.032;2024-01-11T07:22:01;-6.10;99.90
43015;DHT22;28637;50.554;7.032;2024-01-11T07:27:01;-6.10;99.90
43015;DHT22;28637;50.554;7.032;2024-01-11T07:32:02;-6.20;99.90
43015;DHT22;28637;50.554;7.032;2024-01-11T07:37:06;-6.20;99.90
43015;DHT22;28637;50.554;7.032;2024-01-11T07:42:07;-6.40;99.90
43015;DHT22;28637;50.554;7.032;2024-01-11T07:47:08;-6.40;99.90
43015;DHT22;28637;50.554;7.032;2024-01-11T07:52:09;-6.50;99.90
43015;DHT22;28637;50.554;7.032;2024-01-11T07:57:10;-6.40;99.90
43015;DHT22;28637;50.554;7.032;2024-01-11T08:02:10;-6.30;99.90
43015;DHT22;28637;50.554;7.032;2024-01-11T08:07:11;-6.30;99.90
43015;DHT22;28637;50.554;7.032;2024-01-11T08:12:16;-6.20;99.90
43015;DHT22;28637;50.554;7.032;2024-01-11T08:17:17;-6.30;99.90
43015;DHT22;28637;50.554;7.032;2024-01-11T08:22:18;-6.20;99.90
43015;DHT22;28637;50.554;7.032;2024-01-11T08:27:18;-6.10;99.90
43015;DHT22;28637;50.554;7.032;2024-01-11T08:32:19;-6.00;99.90
43015;DHT22;28637;50.554;7.032;2024-01-11T08:37:20;-6.00;99.90
43015;DHT22;28637;50.554;7.032;2024-01-11T08:42:20;-5.90;99.90
43015;DHT22;28637;50.554;7.032;2024-01-11T08:47:21;-5.80;99.90
43015;DHT22;28637;50.554;7.032;2024-01-11T08:52:22;-5.70;99.90
43015;DHT22;28637;50.554;7.032;2024-01-11T08:57:23;-5.70;99.90
43015;DHT22;28637;50.554;7.032;2024-01-11T09:02:23;-5.60;99.90
43015;DHT22;28637;50.554;7.032;2024-01-11T09:07:24;-5.50;99.90
43015;DHT22;28637;50.554;7.032;2024-01-11T09:12:25;-5.30;99.90
43015;DHT22;28637;50.554;7.032;2024-01-11T09:17:25;-5.10;99.90
43015;DHT22;28637;50.554;7.032;2024-01-11T09:22:26;-4.90;99.90
43015;DHT22;28637;50.554;7.032;2024-01-11T09:27:27;-4.80;99.90
43015;DHT22;28637;50.554;7.032;2024-01-11T09:32:27;-4.60;99.90
43015;DHT22;28637;50.554;7.032;2024-01-11T09:37:28;-4.40;99.90
43015;DHT22;28637;50.554;7.032;2024-01-11T09:42:29;-3.90;99.90
43015;DHT22;28637;50.554;7.032;2024-01-11T09:47:30;-3.50;99.90
43015;DHT22;28637;50.554;7.032;2024-01-11T09:52:32;-3.00;99.90
43015;DHT22;28637;50.554;7.032;2024-01-11T09:57:35;-2.70;99.90
43015;DHT22;28637;50.554;7.032;2024-01-11T10:02:37;-2.30;99.90
43015;DHT22;28637;50.554;7.032;2024-01-11T10:07:38;-1.40;99.90
43015;DHT22;28637;50.554;7.032;2024-01-11T10:12:39;-0.70;99.90
43015;DHT22;28637;50.554;7.032;2024-01-11T10:17:44;-0.50;99.90
43015;DHT22;28637;50.554;7.032;2024-01-11T10:22:46;-0.10;99.90
43015;DHT22;28637;50.554;7.032;2024-01-11T10:27:47;0.50;99.90
43015;DHT22;28637;50.554;7.032;2024-01-11T10:32:48;1.10;99.90
43015;DHT22;28637;50.554;7.032;2024-01-11T10:37:51;1.60;99.90
43015;DHT22;28637;50.554;7.032;2024-01-11T10:42:54;1.70;99.90
43015;DHT22;28637;50.554;7.032;2024-01-11T10:48:02;1.60;99.90
43015;DHT22;28637;50.554;7.032;2024-01-11T10:58:34;2.00;99.90
43015;DHT22;28637;50.554;7.032;2024-01-11T11:03:36;2.10;99.90
43015;DHT22;28637;50.554;7.032;2024-01-11T11:08:37;2.50;99.90
43015;DHT22;28637;50.554;7.032;2024-01-11T11:13:38;2.90;99.90
43015;DHT22;28637;50.554;7.032;2024-01-11T11:18:40;3.40;99.90
43015;DHT22;28637;50.554;7.032;2024-01-11T11:23:41;3.90;99.90
43015;DHT22;28637;50.554;7.032;2024-01-11T11:28:43;4.40;99.90
43015;DHT22;28637;50.554;7.032;2024-01-11T11:33:44;4.80;99.90
43015;DHT22;28637;50.554;7.032;2024-01-11T11:38:45;5.00;99.90
43015;DHT22;28637;50.554;7.032;2024-01-11T11:43:47;5.10;99.90
43015;DHT22;28637;50.554;7.032;2024-01-11T11:48:52;5.40;99.90
43015;DHT22;28637;50.554;7.032;2024-01-11T11:53:53;5.80;99.90
43015;DHT22;28637;50.554;7.032;2024-01-11T11:58:54;6.10;99.90
43015;DHT22;28637;50.554;7.032;2024-01-11T12:03:55;6.40;99.90
43015;DHT22;28637;50.554;7.032;2024-01-11T12:08:56;6.60;99.90
43015;DHT22;28637;50.554;7.032;2024-01-11T12:13:57;6.70;99.70
43015;DHT22;28637;50.554;7.032;2024-01-11T12:18:58;6.80;99.70
43015;DHT22;28637;50.554;7.032;2024-01-11T12:23:59;7.00;98.90
43015;DHT22;28637;50.554;7.032;2024-01-11T12:29:01;7.00;98.90
43015;DHT22;28637;50.554;7.032;2024-01-11T12:34:03;7.20;98.40
43015;DHT22;28637;50.554;7.032;2024-01-11T12:39:03;7.30;97.90
43015;DHT22;28637;50.554;7.032;2024-01-11T12:44:09;7.40;97.20
43015;DHT22;28637;50.554;7.032;2024-01-11T12:49:10;7.40;96.40
43015;DHT22;28637;50.554;7.032;2024-01-11T12:54:14;7.40;96.40
43015;DHT22;28637;50.554;7.032;2024-01-11T12:59:15;7.70;95.70
43015;DHT22;28637;50.554;7.032;2024-01-11T13:04:16;7.80;95.50
43015;DHT22;28637;50.554;7.032;2024-01-11T13:09:17;8.00;95.00
43015;DHT22;28637;50.554;7.032;2024-01-11T13:14:18;8.20;94.10
43015;DHT22;28637;50.554;7.032;2024-01-11T13:19:19;8.90;93.50
43015;DHT22;28637;50.554;7.032;2024-01-11T13:24:20;10.40;91.70
43015;DHT22;28637;50.554;7.032;2024-01-11T13:29:21;11.80;89.10
43015;DHT22;28637;50.554;7.032;2024-01-11T13:34:22;12.80;84.90
43015;DHT22;28637;50.554;7.032;2024-01-11T13:39:23;13.20;81.70
43015;DHT22;28637;50.554;7.032;2024-01-11T13:44:25;13.30;79.00
43015;DHT22;28637;50.554;7.032;2024-01-11T13:49:26;13.70;76.50
43015;DHT22;28637;50.554;7.032;2024-01-11T13:54:27;14.50;73.40
43015;DHT22;28637;50.554;7.032;2024-01-11T13:59:28;14.50;71.90
43015;DHT22;28637;50.554;7.032;2024-01-11T14:04:28;13.80;71.20
43015;DHT22;28637;50.554;7.032;2024-01-11T14:09:29;13.10;71.10
43015;DHT22;28637;50.554;7.032;2024-01-11T14:14:30;12.70;72.20
43015;DHT22;28637;50.554;7.032;2024-01-11T14:19:30;12.50;72.60
43015;DHT22;28637;50.554;7.032;2024-01-11T14:24:31;12.30;72.30
43015;DHT22;28637;50.554;7.032;2024-01-11T14:29:32;12.20;72.10
43015;DHT22;28637;50.554;7.032;2024-01-11T14:34:32;11.60;72.80
43015;DHT22;28637;50.554;7.032;2024-01-11T14:39:33;11.10;73.20
43015;DHT22;28637;50.554;7.032;2024-01-11T14:44:34;10.20;73.90
43015;DHT22;28637;50.554;7.032;2024-01-11T14:49:35;9.30;76.90
43015;DHT22;28637;50.554;7.032;2024-01-11T14:54:35;8.40;80.20
43015;DHT22;28637;50.554;7.032;2024-01-11T14:59:36;8.10;82.20
43015;DHT22;28637;50.554;7.032;2024-01-11T15:04:37;8.70;82.10
43015;DHT22;28637;50.554;7.032;2024-01-11T15:09:38;9.40;80.60
43015;DHT22;28637;50.554;7.032;2024-01-11T15:14:39;9.50;79.50
43015;DHT22;28637;50.554;7.032;2024-01-11T15:19:40;9.40;80.40
43015;DHT22;28637;50.554;7.032;2024-01-11T15:24:41;9.60;79.10
43015;DHT22;28637;50.554;7.032;2024-01-11T15:29:43;8.60;79.30
43015;DHT22;28637;50.554;7.032;2024-01-11T15:34:43;6.50;84.40
43015;DHT22;28637;50.554;7.032;2024-01-11T15:39:44;5.10;88.60
43015;DHT22;28637;50.554;7.032;2024-01-11T15:44:45;4.20;90.50
43015;DHT22;28637;50.554;7.032;2024-01-11T15:49:45;3.60;91.50
43015;DHT22;28637;50.554;7.032;2024-01-11T15:54:46;3.10;92.50
43015;DHT22;28637;50.554;7.032;2024-01-11T15:59:47;2.60;93.80
43015;DHT22;28637;50.554;7.032;2024-01-11T16:04:47;2.20;94.80
43015;DHT22;28637;50.554;7.032;2024-01-11T16:09:49;1.90;96.00
43015;DHT22;28637;50.554;7.032;2024-01-11T16:14:50;1.70;97.30
43015;DHT22;28637;50.554;7.032;2024-01-11T16:19:52;1.40;98.00
43015;DHT22;28637;50.554;7.032;2024-01-11T16:24:52;1.20;98.80
43015;DHT22;28637;50.554;7.032;2024-01-11T16:29:54;1.00;99.70
43015;DHT22;28637;50.554;7.032;2024-01-11T16:34:54;0.90;99.90
43015;DHT22;28637;50.554;7.032;2024-01-11T16:39:55;0.80;99.90
43015;DHT22;28637;50.554;7.032;2024-01-11T16:44:56;0.70;99.90
43015;DHT22;28637;50.554;7.032;2024-01-11T16:49:57;0.50;99.90
43015;DHT22;28637;50.554;7.032;2024-01-11T16:55:06;0.40;99.90
43015;DHT22;28637;50.554;7.032;2024-01-11T17:00:07;0.40;99.90
43015;DHT22;28637;50.554;7.032;2024-01-11T17:05:08;0.40;99.90
43015;DHT22;28637;50.554;7.032;2024-01-11T17:10:09;0.20;99.90
43015;DHT22;28637;50.554;7.032;2024-01-11T17:15:10;0.10;99.90
43015;DHT22;28637;50.554;7.032;2024-01-11T17:20:11;0.00;99.90
43015;DHT22;28637;50.554;7.032;2024-01-11T17:25:17;-0.10;99.90
43015;DHT22;28637;50.554;7.032;2024-01-11T17:30:18;-0.20;99.90
43015;DHT22;28637;50.554;7.032;2024-01-11T17:35:19;-0.30;99.90
43015;DHT22;28637;50.554;7.032;2024-01-11T17:40:19;-0.40;99.90
43015;DHT22;28637;50.554;7.032;2024-01-11T17:45:20;-0.50;99.90
43015;DHT22;28637;50.554;7.032;2024-01-11T17:50:21;-0.60;99.90
43015;DHT22;28637;50.554;7.032;2024-01-11T17:55:22;-0.70;99.90
43015;DHT22;28637;50.554;7.032;2024-01-11T18:00:22;-0.80;99.90
43015;DHT22;28637;50.554;7.032;2024-01-11T18:05:24;-0.80;99.90
43015;DHT22;28637;50.554;7.032;2024-01-11T18:10:24;-0.90;99.90
43015;DHT22;28637;50.554;7.032;2024-01-11T18:15:25;-0.90;99.90
43015;DHT22;28637;50.554;7.032;2024-01-11T18:20:26;-0.80;99.90
43015;DHT22;28637;50.554;7.032;2024-01-11T18:25:26;-0.90;99.90
43015;DHT22;28637;50.554;7.032;2024-01-11T18:30:27;-0.90;99.90
43015;DHT22;28637;50.554;7.032;2024-01-11T18:35:28;-1.00;99.90
43015;DHT22;28637;50.554;7.032;2024-01-11T18:40:29;-1.00;99.90
43015;DHT22;28637;50.554;7.032;2024-01-11T18:45:30;-1.00;99.90
43015;DHT22;28637;50.554;7.032;2024-01-11T18:50:31;-1.10;99.90
43015;DHT22;28637;50.554;7.032;2024-01-11T18:55:31;-1.10;99.90
43015;DHT22;28637;50.554;7.032;2024-01-11T19:00:32;-1.20;99.90
43015;DHT22;28637;50.554;7.032;2024-01-11T19:05:35;-1.30;99.90
43015;DHT22;28637;50.554;7.032;2024-01-11T19:10:38;-1.40;99.90
43015;DHT22;28637;50.554;7.032;2024-01-11T19:15:39;-1.60;99.90
43015;DHT22;28637;50.554;7.032;2024-01-11T19:20:40;-1.60;99.90
43015;DHT22;28637;50.554;7.032;2024-01-11T19:25:41;-1.70;99.90
43015;DHT22;28637;50.554;7.032;2024-01-11T19:30:41;-1.70;99.90
43015;DHT22;28637;50.554;7.032;2024-01-11T19:35:43;-1.70;99.90
43015;DHT22;28637;50.554;7.032;2024-01-11T19:40:44;-1.80;99.90
43015;DHT22;28637;50.554;7.032;2024-01-11T19:45:45;-1.90;99.90
43015;DHT22;28637;50.554;7.032;2024-01-11T19:50:45;-2.10;99.90
43015;DHT22;28637;50.554;7.032;2024-01-11T19:55:47;-2.20;99.90
43015;DHT22;28637;50.554;7.032;2024-01-11T20:00:48;-2.20;99.90
43015;DHT22;28637;50.554;7.032;2024-01-11T20:05:49;-2.10;99.90
43015;DHT22;28637;50.554;7.032;2024-01-11T20:10:50;-2.10;99.90
43015;DHT22;28637;50.554;7.032;2024-01-11T20:15:50;-2.30;99.90
43015;DHT22;28637;50.554;7.032;2024-01-11T20:20:52;-2.40;99.90
43015;DHT22;28637;50.554;7.032;2024-01-11T20:25:52;-2.40;99.90
43015;DHT22;28637;50.554;7.032;2024-01-11T20:30:54;-2.40;99.90
43015;DHT22;28637;50.554;7.032;2024-01-11T20:35:55;-2.30;99.90
43015;DHT22;28637;50.554;7.032;2024-01-11T20:40:55;-2.30;99.90
43015;DHT22;28637;50.554;7.032;2024-01-11T20:45:56;-2.40;99.90
43015;DHT22;28637;50.554;7.032;2024-01-11T20:50:57;-2.40;99.90
43015;DHT22;28637;50.554;7.032;2024-01-11T20:55:57;-2.40;99.90
43015;DHT22;28637;50.554;7.032;2024-01-11T21:00:58;-2.40;99.90
43015;DHT22;28637;50.554;7.032;2024-01-11T21:05:59;-2.60;99.90
43015;DHT22;28637;50.554;7.032;2024-01-11T21:10:59;-2.70;99.90
43015;DHT22;28637;50.554;7.032;2024-01-11T21:16:00;-2.70;99.90
43015;DHT22;28637;50.554;7.032;2024-01-11T21:21:02;-2.60;99.90
43015;DHT22;28637;50.554;7.032;2024-01-11T21:26:02;-2.70;99.90
43015;DHT22;28637;50.554;7.032;2024-01-11T21:31:03;-2.70;99.90
43015;DHT22;28637;50.554;7.032;2024-01-11T21:36:06;-2.70;99.90
43015;DHT22;28637;50.554;7.032;2024-01-11T21:41:07;-2.60;99.90
43015;DHT22;28637;50.554;7.032;2024-01-11T21:46:08;-2.60;99.90
43015;DHT22;28637;50.554;7.032;2024-01-11T21:51:10;-2.40;99.90
43015;DHT22;28637;50.554;7.032;2024-01-11T21:56:12;-2.20;99.90
43015;DHT22;28637;50.554;7.032;2024-01-11T22:01:13;-2.10;99.90
43015;DHT22;28637;50.554;7.032;2024-01-11T22:06:14;-2.00;99.90
43015;DHT22;28637;50.554;7.032;2024-01-11T22:11:14;-1.80;99.90
43015;DHT22;28637;50.554;7.032;2024-01-11T22:16:16;-1.80;99.90
43015;DHT22;28637;50.554;7.032;2024-01-11T22:21:18;-1.80;99.90
43015;DHT22;28637;50.554;7.032;2024-01-11T22:26:23;-1.70;99.90
43015;DHT22;28637;50.554;7.032;2024-01-11T22:31:32;-1.60;99.90
43015;DHT22;28637;50.554;7.032;2024-01-11T22:36:33;-1.50;99.90
43015;DHT22;28637;50.554;7.032;2024-01-11T22:41:39;-1.40;99.90
43015;DHT22;28637;50.554;7.032;2024-01-11T22:46:39;-1.30;99.90
43015;DHT22;28637;50.554;7.032;2024-01-11T22:51:40;-1.20;99.90
43015;DHT22;28637;50.554;7.032;2024-01-11T22:56:41;-1.20;99.90
43015;DHT22;28637;50.554;7.032;2024-01-11T23:01:41;-1.10;99.90
43015;DHT22;28637;50.554;7.032;2024-01-11T23:06:43;-1.10;99.90
43015;DHT22;28637;50.554;7.032;2024-01-11T23:11:43;-1.00;99.90
43015;DHT22;28637;50.554;7.032;2024-01-11T23:16:45;-1.00;99.90
43015;DHT22;28637;50.554;7.032;2024-01-11T23:21:46;-1.00;99.90
43015;DHT22;28637;50.554;7.032;2024-01-11T23:26:46;-0.80;99.90
43015;DHT22;28637;50.554;7.032;2024-01-11T23:31:47;-0.80;99.90
43015;DHT22;28637;50.554;7.032;2024-01-11T23:36:48;-0.60;99.90
43015;DHT22;28637;50.554;7.032;2024-01-11T23:41:48;-0.60;99.90
43015;DHT22;28637;50.554;7.032;2024-01-11T23:46:49;-0.50;99.90
43015;DHT22;28637;50.554;7.032;2024-01-11T23:51:50;-0.50;99.90
43015;DHT22;28637;50.554;7.032;2024-01-11T23:56:50;-0.40;99.90
